Puerto Aisen, Chile
Current Conditions -  °F | °C
As of 7:00 PM on Saturday 25 Oct 2014 (Local Time) from SCBA Reporting Station
Clear Clear  
Wind Chill: 52°   Ceiling: Unl
Heat Index: 52°   Visibility: 6mi
Dew Point: 34°   Wind: 26mph
Humidity: 50%   Direction: 300°WNW
Pressure: 29.71"   Gusts: NA
Location:  45.4°S, 72.7°W
Report Text: SCBA 252300Z AUTO 30023KT CAVOK 11/01 Q1006
Loading
Personal Weather Stations






























Interactive Weather Map
Tropical Storm Tracking
New forecast layout! Learn more

10-Day Weather Forecast

Advertisements
Track Severe Weather on mobile